Time;durP1;ratioP1;P1;durP2;ratioP2;P2;SDS_P1;SDS_P2;PMS_P1;PMS_P2;Temp;Humidity;BMP_temperature;BMP_pressure;BME280_temperature;BME280_humidity;BME280_pressure;Samples;Min_cycle;Max_cycle;Signal;HPM_P1;HPM_P2
2022/03/21 00:00:27;;;;;;;46.63;17.20;;;;;;;1.96;46.38;102661.16;4932202;28;20301;-58
2022/03/21 00:02:55;;;;;;;46.20;17.53;;;;;;;1.81;46.54;102657.13;4931343;28;20240;-60
2022/03/21 00:05:22;;;;;;;45.20;18.57;;;;;;;1.75;46.67;102659.03;4930726;28;20600;-60
2022/03/21 00:07:49;;;;;;;54.33;18.30;;;;;;;1.81;46.44;102656.28;4934271;28;20228;-61
2022/03/21 00:10:16;;;;;;;45.73;19.13;;;;;;;1.78;46.20;102661.56;4932302;28;20243;-61
2022/03/21 00:12:42;;;;;;;46.27;19.67;;;;;;;1.79;46.06;102656.28;4948371;28;20247;-61
2022/03/21 00:15:10;;;;;;;54.13;19.70;;;;;;;1.87;45.83;102664.00;4942512;28;20340;-61
2022/03/21 00:17:40;;;;;;;54.30;21.10;;;;;;;1.77;46.28;102662.47;4931761;28;20238;-61
2022/03/21 00:20:11;;;;;;;50.13;21.40;;;;;;;1.57;46.50;102666.41;4929477;28;20351;-61
2022/03/21 00:22:38;;;;;;;63.63;22.63;;;;;;;1.64;46.24;102660.13;4928950;28;20625;-60
2022/03/21 00:25:06;;;;;;;59.70;23.47;;;;;;;1.70;46.14;102659.13;4928615;28;20606;-60
2022/03/21 00:27:33;;;;;;;65.07;24.03;;;;;;;1.61;46.69;102665.41;4929660;28;21042;-60
2022/03/21 00:29:59;;;;;;;65.83;25.07;;;;;;;1.62;46.55;102671.56;4914163;28;20224;-60
2022/03/21 00:32:26;;;;;;;60.93;23.77;;;;;;;1.57;46.46;102663.78;4930762;28;20244;-60
2022/03/21 00:34:52;;;;;;;61.60;25.73;;;;;;;1.44;46.99;102670.16;4913534;28;20240;-60
2022/03/21 00:37:20;;;;;;;65.03;25.77;;;;;;;1.63;46.32;102662.78;4930531;28;20860;-59
2022/03/21 00:39:46;;;;;;;67.27;24.27;;;;;;;1.65;46.46;102658.34;5003876;28;20239;-62
2022/03/21 00:42:13;;;;;;;64.50;24.63;;;;;;;1.67;46.18;102665.31;4949861;28;20317;-60
2022/03/21 00:44:39;;;;;;;61.47;25.67;;;;;;;1.64;46.56;102670.63;4941647;28;20304;-60
2022/03/21 00:47:06;;;;;;;67.00;26.27;;;;;;;1.51;46.96;102671.75;4931949;28;20304;-60
2022/03/21 00:49:33;;;;;;;72.37;27.23;;;;;;;1.30;47.34;102666.97;4916890;28;20229;-59
2022/03/21 00:52:00;;;;;;;68.57;26.67;;;;;;;1.42;47.36;102664.94;4929946;28;20247;-60
2022/03/21 00:54:26;;;;;;;60.23;24.77;;;;;;;1.46;47.61;102663.13;4928974;28;20275;-60
2022/03/21 00:56:53;;;;;;;70.57;26.50;;;;;;;1.53;47.27;102666.50;4929131;28;20705;-60
2022/03/21 00:59:20;;;;;;;71.73;26.40;;;;;;;1.51;46.99;102668.28;4929053;28;20343;-59
2022/03/21 01:01:46;;;;;;;65.13;26.27;;;;;;;1.56;47.51;102671.66;4987817;28;20576;-60
2022/03/21 01:04:13;;;;;;;70.27;25.53;;;;;;;1.31;48.00;102666.03;5049558;28;21046;-60
2022/03/21 01:06:40;;;;;;;69.20;25.17;;;;;;;1.16;47.92;102662.84;5044453;28;20225;-60
2022/03/21 01:09:07;;;;;;;66.27;25.50;;;;;;;1.14;48.47;102656.75;5050255;28;20704;-60
2022/03/21 01:11:34;;;;;;;62.67;25.23;;;;;;;1.30;48.05;102666.97;5049128;28;20262;-61
2022/03/21 01:14:01;;;;;;;63.70;24.33;;;;;;;1.47;47.76;102662.22;5032807;28;20244;-60
2022/03/21 01:16:27;;;;;;;64.30;24.03;;;;;;;1.53;48.01;102661.25;5048559;28;20231;-61
2022/03/21 01:18:54;;;;;;;62.23;24.63;;;;;;;1.43;48.25;102658.81;5048732;28;20229;-59
2022/03/21 01:21:21;;;;;;;61.73;26.87;;;;;;;1.33;47.56;102657.25;5049254;28;20275;-59
2022/03/21 01:23:48;;;;;;;63.93;25.40;;;;;;;1.38;47.95;102650.19;5050347;28;21059;-60
2022/03/21 01:26:15;;;;;;;66.13;24.93;;;;;;;1.32;47.52;102646.81;5048653;28;20221;-60
2022/03/21 01:28:42;;;;;;;59.53;24.67;;;;;;;1.36;47.63;102648.44;5049551;28;20676;-59
2022/03/21 01:31:09;;;;;;;59.73;24.07;;;;;;;1.29;47.76;102647.75;5031888;28;20231;-59
2022/03/21 01:33:38;;;;;;;57.17;23.30;;;;;;;1.30;47.59;102643.34;5050320;28;20309;-60
2022/03/21 01:36:05;;;;;;;60.90;24.40;;;;;;;1.31;47.84;102645.06;4956251;28;20240;-59
2022/03/21 01:38:31;;;;;;;60.53;23.23;;;;;;;1.21;47.75;102640.00;4934170;28;20241;-59
2022/03/21 01:40:58;;;;;;;61.20;23.00;;;;;;;1.23;47.52;102638.22;4928780;28;20228;-59
2022/03/21 01:43:25;;;;;;;60.97;23.40;;;;;;;1.05;48.65;102644.69;4917443;28;20235;-60
2022/03/21 01:45:52;;;;;;;63.77;23.60;;;;;;;1.09;48.02;102637.63;4930669;28;20259;-60
2022/03/21 01:48:18;;;;;;;65.03;24.57;;;;;;;1.04;47.94;102642.97;4932034;28;20647;-58
2022/03/21 01:50:45;;;;;;;56.80;23.20;;;;;;;0.92;48.41;102637.09;4942931;28;20263;-61
2022/03/21 01:55:58;;;;;;;55.17;22.37;;;;;;;1.24;47.49;102639.06;4925982;28;20239;-59
2022/03/21 01:58:25;;;;;;;56.03;21.33;;;;;;;1.26;47.54;102635.56;4913613;28;20907;-60
2022/03/21 02:00:52;;;;;;;51.13;21.90;;;;;;;1.15;48.68;102634.91;4948548;28;20615;-60
2022/03/21 02:03:19;;;;;;;49.30;21.10;;;;;;;1.09;49.41;102628.91;4930379;28;21136;-60
2022/03/21 02:05:47;;;;;;;52.10;20.77;;;;;;;0.86;50.27;102638.06;4927862;28;21513;-60
2022/03/21 02:08:14;;;;;;;53.50;20.97;;;;;;;0.80;49.97;102635.56;4912617;28;20291;-60
2022/03/21 02:10:44;;;;;;;53.70;21.20;;;;;;;0.79;50.23;102634.69;4930810;28;20351;-60
2022/03/21 02:13:10;;;;;;;52.30;21.03;;;;;;;0.79;49.83;102632.06;4914779;28;20702;-60
2022/03/21 02:15:37;;;;;;;62.37;23.70;;;;;;;0.61;50.44;102632.41;4931143;28;20296;-60
2022/03/21 02:18:04;;;;;;;62.43;24.70;;;;;;;0.71;50.01;102641.81;5049583;28;20327;-60
2022/03/21 02:20:33;;;;;;;59.10;24.27;;;;;;;0.94;49.32;102638.78;5051316;28;20294;-60
2022/03/21 02:23:50;;;;;;;67.33;25.30;;;;;;;0.96;49.20;102643.97;5050369;28;20562;-60
2022/03/21 02:26:17;;;;;;;61.53;23.50;;;;;;;1.00;48.83;102636.03;5038461;28;20325;-59
2022/03/21 02:28:44;;;;;;;60.83;23.33;;;;;;;1.02;48.75;102638.63;5050723;28;20221;-59
2022/03/21 02:31:12;;;;;;;57.73;23.07;;;;;;;1.02;49.18;102638.63;5050441;28;21747;-59
2022/03/21 02:33:39;;;;;;;61.77;23.47;;;;;;;0.93;48.46;102638.81;5017130;28;20321;-59
2022/03/21 02:36:06;;;;;;;55.80;23.17;;;;;;;0.84;48.86;102630.25;5034985;28;20311;-58
2022/03/21 02:38:33;;;;;;;59.43;22.73;;;;;;;0.80;49.10;102636.41;5034350;28;20590;-59
2022/03/21 02:41:01;;;;;;;56.80;22.70;;;;;;;0.89;48.92;102635.41;5035463;28;20367;-60
2022/03/21 02:43:27;;;;;;;58.83;23.87;;;;;;;0.88;49.71;102649.38;5035942;28;20229;-59
2022/03/21 02:46:04;;;;;;;57.27;23.20;;;;;;;0.84;49.96;102648.59;5035440;28;20256;-59
2022/03/21 02:48:31;;;;;;;63.73;23.97;;;;;;;0.95;49.78;102637.03;5035989;28;20221;-60
2022/03/21 02:51:02;;;;;;;57.07;22.80;;;;;;;0.97;49.17;102635.25;5034877;28;20297;-59
2022/03/21 02:53:37;;;;;;;54.87;22.13;;;;;;;1.10;48.84;102641.09;5035639;28;21207;-59
2022/03/21 02:56:04;;;;;;;58.20;22.63;;;;;;;1.12;48.57;102634.94;5033011;28;20229;-60
2022/03/21 02:58:31;;;;;;;58.23;23.70;;;;;;;1.07;48.51;102639.41;5032649;28;20776;-61
2022/03/21 03:01:08;;;;;;;58.87;23.03;;;;;;;1.19;48.10;102636.53;5032737;28;20308;-58
2022/03/21 03:03:35;;;;;;;57.33;21.60;;;;;;;1.20;47.64;102638.28;5033060;28;20290;-60
2022/03/21 03:06:03;;;;;;;52.33;20.80;;;;;;;1.10;48.69;102635.84;5027490;28;20221;-60
2022/03/21 03:08:30;;;;;;;57.93;21.60;;;;;;;0.87;48.79;102638.91;5030933;28;20673;-59
2022/03/21 03:10:57;;;;;;;55.23;23.20;;;;;;;0.67;49.96;102636.66;5028647;28;20303;-57
2022/03/21 03:13:23;;;;;;;56.97;21.97;;;;;;;0.67;50.13;102632.28;5014333;28;20379;-59
2022/03/21 03:15:50;;;;;;;58.00;22.20;;;;;;;0.74;49.29;102633.91;5044842;28;22454;-58
2022/03/21 03:18:17;;;;;;;54.77;22.37;;;;;;;0.71;49.65;102633.97;5031315;28;20234;-55
2022/03/21 03:20:48;;;;;;;53.00;22.63;;;;;;;0.56;50.46;102632.50;5035264;28;20710;-60
2022/03/21 03:23:17;;;;;;;57.20;23.30;;;;;;;0.24;52.37;102627.78;5034521;28;21294;-60
2022/03/21 03:25:44;;;;;;;59.13;24.53;;;;;;;-0.03;53.70;102629.06;5033790;28;20348;-59
2022/03/21 03:28:11;;;;;;;65.10;25.40;;;;;;;-0.12;54.08;102627.44;5033225;28;20692;-61
2022/03/21 03:30:59;;;;;;;58.40;24.77;;;;;;;0.01;52.98;102627.28;4917993;28;20236;-60
2022/03/21 03:33:26;;;;;;;68.53;25.70;;;;;;;0.02;52.99;102621.13;4935228;28;20302;-60
2022/03/21 03:35:53;;;;;;;70.57;28.20;;;;;;;-0.04;53.70;102622.09;4934396;28;20328;-59
2022/03/21 03:38:20;;;;;;;70.33;27.63;;;;;;;0.04;52.65;102620.22;4932676;28;20262;-59
2022/03/21 03:40:47;;;;;;;62.73;25.53;;;;;;;0.04;52.60;102620.22;4930080;28;20325;-59
2022/03/21 03:43:15;;;;;;;70.90;26.27;;;;;;;0.04;53.03;102621.97;4915438;28;20312;-60
2022/03/21 03:45:44;;;;;;;80.33;29.17;;;;;;;-0.16;53.55;102614.44;4917794;28;20225;-60
2022/03/21 03:48:11;;;;;;;83.03;32.43;;;;;;;-0.44;54.73;102617.44;4916042;28;20374;-59
2022/03/21 03:50:38;;;;;;;85.50;31.40;;;;;;;-0.46;54.78;102621.81;4916586;28;20265;-60
2022/03/21 03:53:04;;;;;;;103.87;37.17;;;;;;;-0.40;54.54;102618.25;4914494;28;20316;-61
2022/03/21 03:55:31;;;;;;;105.37;37.80;;;;;;;-0.38;54.79;102619.09;4275165;28;20300;-65
2022/03/21 03:57:57;;;;;;;106.33;38.50;;;;;;;-0.35;54.67;102622.53;4205013;28;20228;-61
2022/03/21 04:00:24;;;;;;;102.43;39.03;;;;;;;-0.15;54.52;102624.00;4184250;28;22431;-62
2022/03/21 04:05:36;;;;;;;102.20;38.97;;;;;;;-0.26;55.10;102618.91;4181060;28;21484;-63
2022/03/21 04:08:04;;;;;;;106.87;40.03;;;;;;;-0.44;55.30;102618.28;4185422;28;20224;-62
2022/03/21 04:10:30;;;;;;;107.60;40.03;;;;;;;-0.37;54.94;102610.38;4191765;28;20239;-60
2022/03/21 04:12:57;;;;;;;106.43;38.83;;;;;;;-0.33;54.60;102620.78;4195229;28;20249;-62
2022/03/21 04:15:24;;;;;;;114.77;42.67;;;;;;;-0.33;54.93;102612.94;4188145;28;20255;-62
2022/03/21 04:17:50;;;;;;;107.67;38.47;;;;;;;-0.29;54.79;102614.59;4206208;28;20244;-63
2022/03/21 04:20:17;;;;;;;114.03;42.60;;;;;;;-0.43;55.93;102613.91;4187034;28;25039;-63
2022/03/21 04:22:43;;;;;;;117.40;41.30;;;;;;;-0.30;55.16;102614.63;4188340;28;21855;-61
2022/03/21 04:25:10;;;;;;;104.80;38.97;;;;;;;-0.17;54.27;102613.56;4184608;28;20250;-61
2022/03/21 04:27:38;;;;;;;106.17;40.00;;;;;;;-0.22;54.30;102615.38;4175308;28;22045;-62
2022/03/21 04:30:06;;;;;;;110.13;40.80;;;;;;;-0.21;54.28;102614.50;4194181;28;20304;-61
2022/03/21 04:32:33;;;;;;;98.63;38.93;;;;;;;-0.06;54.13;102616.88;4186898;28;20276;-63
2022/03/21 04:34:59;;;;;;;112.67;39.17;;;;;;;-0.05;54.08;102616.00;4187570;28;20230;-62
2022/03/21 04:37:26;;;;;;;100.03;37.07;;;;;;;-0.11;54.17;102620.47;4180801;28;20233;-62
2022/03/21 04:39:53;;;;;;;112.53;40.67;;;;;;;-0.06;54.56;102618.63;4214756;28;21246;-62
2022/03/21 04:42:20;;;;;;;105.93;39.13;;;;;;;0.05;53.36;102615.84;4221611;28;21557;-64
2022/03/21 04:44:48;;;;;;;112.57;39.57;;;;;;;0.12;53.60;102617.50;4219301;28;20498;-62
2022/03/21 04:47:15;;;;;;;117.27;41.17;;;;;;;-0.01;53.72;102619.44;4232463;28;21487;-63
2022/03/21 04:49:42;;;;;;;126.00;44.37;;;;;;;0.09;53.63;102622.78;4238931;28;20235;-62
2022/03/21 04:52:09;;;;;;;114.03;42.33;;;;;;;0.10;54.01;102627.13;4244642;28;21826;-62
2022/03/21 04:54:35;;;;;;;120.83;42.43;;;;;;;0.07;53.44;102620.19;4259802;28;21782;-62
2022/03/21 04:57:05;;;;;;;109.17;40.40;;;;;;;0.15;53.65;102627.91;4310515;28;20307;-60
2022/03/21 04:59:33;;;;;;;113.23;41.33;;;;;;;0.10;53.77;102633.22;4259611;28;20231;-62
2022/03/21 05:02:00;;;;;;;111.30;38.70;;;;;;;0.06;54.18;102630.69;4270961;28;20905;-63
2022/03/21 05:04:27;;;;;;;97.60;37.23;;;;;;;-0.05;54.62;102629.09;4259318;28;21005;-60
2022/03/21 05:06:55;;;;;;;93.67;36.80;;;;;;;-0.08;55.38;102630.88;4254001;28;20269;-63
2022/03/21 05:09:21;;;;;;;105.37;38.03;;;;;;;-0.20;55.52;102625.84;4236012;28;21806;-61
2022/03/21 05:11:48;;;;;;;107.30;39.27;;;;;;;0.01;54.62;102630.75;4249701;28;20532;-65
2022/03/21 05:14:16;;;;;;;112.97;39.27;;;;;;;0.12;54.22;102634.06;4242359;28;20243;-62
2022/03/21 05:16:42;;;;;;;120.83;39.80;;;;;;;0.13;53.80;102627.06;4233120;28;20717;-63
2022/03/21 05:19:09;;;;;;;109.57;38.13;;;;;;;0.29;53.14;102625.94;4270711;28;21715;-59
2022/03/21 05:21:39;;;;;;;103.67;38.27;;;;;;;0.41;52.78;102640.59;4245168;28;21526;-62
2022/03/21 05:32:22;;;;;;;95.13;33.83;;;;;;;0.81;50.53;102646.00;4222634;28;20235;-63
2022/03/21 05:37:34;;;;;;;85.60;34.23;;;;;;;0.83;50.66;102644.22;4335390;23;20243;-66
2022/03/21 05:42:45;;;;;;;113.07;41.53;;;;;;;1.08;50.42;102646.41;4946711;28;20307;-64
2022/03/21 05:45:19;;;;;;;100.70;36.60;;;;;;;1.18;50.11;102645.31;4945570;28;20350;-66
2022/03/21 05:50:34;;;;;;;98.77;36.37;;;;;;;1.43;49.14;102652.72;4935602;28;20347;-70
2022/03/21 05:53:02;;;;;;;95.10;35.30;;;;;;;1.50;48.70;102645.53;4945013;28;20240;-64
2022/03/21 05:55:30;;;;;;;95.80;38.13;;;;;;;1.59;49.21;102645.34;4933129;28;20224;-66
2022/03/21 05:57:57;;;;;;;107.63;38.90;;;;;;;1.69;48.40;102649.53;4947723;28;20312;-65
2022/03/21 06:00:25;;;;;;;105.87;38.10;;;;;;;1.78;48.31;102651.06;4946002;28;20232;-66
2022/03/21 06:02:52;;;;;;;110.90;37.77;;;;;;;1.94;47.75;102655.06;4945365;28;20228;-66
2022/03/21 06:05:20;;;;;;;100.10;37.63;;;;;;;2.08;47.73;102655.66;4945039;28;20240;-65
2022/03/21 06:07:48;;;;;;;100.10;36.27;;;;;;;2.28;47.28;102656.94;4945688;28;20720;-66
2022/03/21 06:10:14;;;;;;;103.30;36.70;;;;;;;2.38;46.89;102650.56;4945566;28;20232;-64
2022/03/21 06:12:41;;;;;;;89.30;35.50;;;;;;;2.48;46.58;102654.69;4944908;28;21439;-67
2022/03/21 06:15:08;;;;;;;105.00;36.63;;;;;;;2.60;46.30;102658.78;4945458;28;20329;-65
2022/03/21 06:17:42;;;;;;;96.67;33.73;;;;;;;2.72;45.69;102663.72;4931569;28;20311;-64
2022/03/21 06:20:10;;;;;;;84.43;31.87;;;;;;;2.88;45.23;102661.56;4932397;28;20312;-66
2022/03/21 06:22:37;;;;;;;82.43;30.00;;;;;;;3.08;44.35;102662.78;4945944;28;20294;-65
2022/03/21 06:25:04;;;;;;;73.10;29.23;;;;;;;3.33;43.53;102660.34;4944981;28;20290;-66
2022/03/21 06:27:33;;;;;;;79.40;30.17;;;;;;;3.46;43.02;102660.84;4943952;28;20775;-67
2022/03/21 06:30:00;;;;;;;78.33;29.50;;;;;;;3.67;42.98;102667.25;4932738;28;20342;-66
2022/03/21 06:32:26;;;;;;;71.83;28.07;;;;;;;3.74;42.78;102669.66;4945917;28;20238;-66
2022/03/21 06:34:54;;;;;;;67.13;28.80;;;;;;;3.89;41.89;102668.34;4932054;28;20243;-65
2022/03/21 06:37:21;;;;;;;75.13;29.43;;;;;;;4.11;41.74;102673.81;4943393;28;20313;-67
2022/03/21 06:39:47;;;;;;;76.77;27.50;;;;;;;4.21;41.11;102670.00;4931464;28;20228;-61
2022/03/21 06:42:14;;;;;;;64.40;27.43;;;;;;;4.43;41.47;102671.94;4945604;28;20327;-61
2022/03/21 06:44:42;;;;;;;73.10;28.10;;;;;;;4.55;40.49;102676.78;4947162;28;20228;-62
2022/03/21 06:47:09;;;;;;;83.23;29.93;;;;;;;4.66;40.46;102684.34;4929545;28;20255;-65
2022/03/21 06:49:36;;;;;;;77.70;29.80;;;;;;;4.76;39.87;102682.28;4918971;28;20237;-66
2022/03/21 06:52:05;;;;;;;76.20;30.60;;;;;;;4.91;39.35;102684.38;4944923;28;20877;-68
2022/03/21 06:54:32;;;;;;;72.93;28.83;;;;;;;5.06;39.38;102683.84;4947241;28;20698;-65
2022/03/21 06:56:59;;;;;;;90.67;28.70;;;;;;;5.32;39.00;102689.13;4931007;28;20426;-64
2022/03/21 06:59:26;;;;;;;78.57;28.73;;;;;;;5.50;38.74;102694.59;4931229;28;20228;-63
2022/03/21 07:01:52;;;;;;;71.50;27.47;;;;;;;5.61;37.68;102690.69;4929804;28;20340;-65
2022/03/21 07:04:20;;;;;;;79.70;29.00;;;;;;;5.68;37.88;102692.16;4930701;28;20233;-66
2022/03/21 07:06:47;;;;;;;69.37;26.83;;;;;;;5.80;37.56;102696.97;4930265;28;20368;-65
2022/03/21 07:09:14;;;;;;;69.67;25.23;;;;;;;5.90;36.95;102685.16;4932042;28;20237;-67
2022/03/21 07:11:40;;;;;;;56.13;25.17;;;;;;;6.02;37.19;102697.06;4929707;28;20340;-65
2022/03/21 07:14:11;;;;;;;68.60;27.30;;;;;;;6.27;36.36;102696.94;4934348;28;20713;-64
2022/03/21 07:16:37;;;;;;;66.17;26.77;;;;;;;6.36;35.85;102694.88;4950346;28;20324;-66
2022/03/21 07:19:04;;;;;;;56.77;24.83;;;;;;;6.47;35.43;102703.22;4916852;29;20221;-65
2022/03/21 07:21:30;;;;;;;56.20;24.30;;;;;;;6.62;35.24;102705.22;4930203;28;20233;-65
2022/03/21 07:23:57;;;;;;;61.30;22.43;;;;;;;6.83;34.66;102702.63;4916921;28;20308;-66
2022/03/21 07:26:24;;;;;;;59.87;23.60;;;;;;;7.18;33.73;102712.53;4929592;28;20364;-65
2022/03/21 07:28:50;;;;;;;59.20;22.63;;;;;;;8.03;32.48;102706.94;4918606;28;20225;-64
2022/03/21 07:31:33;;;;;;;53.97;21.63;;;;;;;9.20;30.03;102711.81;4928764;28;20270;-66
2022/03/21 07:34:00;;;;;;;47.77;21.60;;;;;;;12.06;26.64;102727.28;5013403;28;20228;-65
2022/03/21 07:36:28;;;;;;;48.70;20.87;;;;;;;16.57;20.57;102737.97;4931177;28;20225;-66
2022/03/21 07:38:57;;;;;;;46.90;20.90;;;;;;;19.80;17.17;102755.72;4929849;28;20301;-65
2022/03/21 07:41:26;;;;;;;49.83;22.77;;;;;;;22.32;13.62;102767.94;4931608;28;20225;-66
2022/03/21 07:43:57;;;;;;;50.27;22.20;;;;;;;23.54;13.03;102774.41;4932135;28;20287;-66
2022/03/21 07:49:11;;;;;;;50.30;23.83;;;;;;;26.29;10.29;102782.59;4930326;28;20225;-65
2022/03/21 07:51:38;;;;;;;56.47;22.23;;;;;;;26.07;10.24;102785.28;4928193;28;20261;-65
2022/03/21 07:54:05;;;;;;;50.92;24.23;;;;;;;26.57;9.46;102790.09;4930043;28;20244;-66
2022/03/21 07:56:32;;;;;;;44.88;22.08;;;;;;;27.05;9.25;102777.50;4914884;28;20221;-66
2022/03/21 07:58:59;;;;;;;50.72;23.60;;;;;;;27.65;8.73;102786.19;4931162;28;20249;-68
2022/03/21 08:01:29;;;;;;;49.03;23.48;;;;;;;27.82;8.61;102785.84;4930240;28;20317;-66
2022/03/21 08:03:58;;;;;;;42.85;21.63;;;;;;;27.88;8.18;102782.31;4928395;28;21131;-66
2022/03/21 08:06:25;;;;;;;40.47;20.48;;;;;;;28.49;7.72;102784.22;4916858;28;20233;-66
2022/03/21 08:08:54;;;;;;;44.30;20.38;;;;;;;27.69;8.03;102779.22;4928400;28;20241;-65
2022/03/21 08:11:21;;;;;;;35.30;17.45;;;;;;;28.45;7.36;102783.78;4931702;28;20852;-66
2022/03/21 08:13:49;;;;;;;33.42;16.40;;;;;;;28.93;6.82;102783.63;4929631;28;20228;-66
2022/03/21 08:16:20;;;;;;;32.40;15.80;;;;;;;29.60;6.48;102778.94;4932311;28;20537;-67
2022/03/21 08:18:49;;;;;;;31.00;14.95;;;;;;;29.87;6.02;102784.38;4929040;28;20241;-65
2022/03/21 08:21:15;;;;;;;34.17;14.68;;;;;;;29.58;6.64;102777.50;4927200;28;20320;-66
2022/03/21 08:23:42;;;;;;;34.22;15.73;;;;;;;29.73;6.40;102794.56;4927270;28;20237;-66
2022/03/21 08:26:10;;;;;;;27.67;15.65;;;;;;;29.17;6.79;102782.22;4929633;28;20233;-67
2022/03/21 08:28:37;;;;;;;25.65;14.48;;;;;;;29.05;6.45;102781.09;4928283;28;20746;-70
2022/03/21 08:31:04;;;;;;;35.08;15.52;;;;;;;27.39;6.90;102777.78;4927747;28;20228;-67
2022/03/21 08:33:31;;;;;;;29.10;14.48;;;;;;;26.40;8.26;102763.00;4927991;28;20237;-66
2022/03/21 08:35:57;;;;;;;28.75;14.60;;;;;;;26.56;7.81;102761.94;4926750;28;20286;-68
2022/03/21 08:38:28;;;;;;;26.77;14.85;;;;;;;26.70;7.82;102762.91;4927103;28;20296;-67
2022/03/21 08:40:57;;;;;;;29.05;14.23;;;;;;;24.56;8.82;102752.69;4930435;28;20233;-67
2022/03/21 08:43:25;;;;;;;28.03;14.00;;;;;;;22.08;10.32;102734.28;4926163;28;20225;-67
2022/03/21 08:45:51;;;;;;;26.47;13.27;;;;;;;20.57;11.50;102724.66;4929878;28;20246;-68
2022/03/21 08:48:18;;;;;;;22.30;13.50;;;;;;;19.16;12.68;102714.13;4927770;28;20229;-69
2022/03/21 08:50:45;;;;;;;25.37;12.50;;;;;;;17.47;13.75;102707.91;4928968;28;20968;-68
2022/03/21 08:53:11;;;;;;;26.33;13.60;;;;;;;16.49;15.14;102700.16;4927237;28;20259;-72
2022/03/21 08:55:40;;;;;;;28.87;13.43;;;;;;;15.65;15.95;102702.47;4926188;28;20221;-70
2022/03/21 08:58:06;;;;;;;23.47;11.20;;;;;;;15.31;15.49;102694.41;4927799;28;20627;-69
2022/03/21 09:00:33;;;;;;;25.10;11.27;;;;;;;15.27;16.34;102690.28;4928904;28;20332;-69
2022/03/21 09:03:00;;;;;;;23.20;11.47;;;;;;;15.18;16.34;102692.69;4925616;28;20228;-70
2022/03/21 09:05:27;;;;;;;27.10;12.13;;;;;;;15.35;16.55;102698.56;4926709;28;20723;-68
2022/03/21 09:07:56;;;;;;;26.80;11.33;;;;;;;15.54;16.48;102685.38;4928163;28;20239;-69
2022/03/21 09:10:23;;;;;;;25.87;11.30;;;;;;;15.44;16.94;102688.94;4929088;28;20702;-68
2022/03/21 09:12:50;;;;;;;22.67;11.10;;;;;;;15.41;16.20;102685.53;4927345;28;20253;-69
2022/03/21 09:15:18;;;;;;;43.27;18.63;;;;;;;15.10;16.78;102686.22;4929702;28;20243;-67
2022/03/21 09:17:45;;;;;;;22.23;10.97;;;;;;;15.15;16.43;102684.88;4925270;28;20255;-68
2022/03/21 09:20:14;;;;;;;19.07;10.40;;;;;;;15.34;16.33;102686.13;4928079;28;20257;-81
2022/03/21 09:22:41;;;;;;;25.43;10.27;;;;;;;15.28;16.06;102687.44;4940689;28;21759;-70
2022/03/21 09:25:09;;;;;;;20.63;10.87;;;;;;;15.13;16.46;102686.84;4926198;28;20607;-73
2022/03/21 09:27:41;;;;;;;22.40;10.23;;;;;;;14.83;16.54;102694.56;4926755;28;20877;-68
2022/03/21 09:30:08;;;;;;;26.57;13.87;;;;;;;15.04;16.76;102684.03;4926311;28;20256;-70
2022/03/21 09:32:35;;;;;;;23.57;11.20;;;;;;;15.27;16.54;102684.91;4924033;28;20227;-69
2022/03/21 09:35:02;;;;;;;24.87;11.87;;;;;;;14.71;16.93;102681.13;4926053;28;20611;-68
2022/03/21 09:37:29;;;;;;;20.67;10.13;;;;;;;14.40;16.93;102679.00;4927462;28;20248;-68
2022/03/21 09:39:56;;;;;;;22.30;11.67;;;;;;;13.91;17.31;102681.69;4929290;28;20230;-69
2022/03/21 09:42:23;;;;;;;25.40;11.90;;;;;;;13.61;17.65;102691.91;4925354;28;20251;-68
2022/03/21 09:44:53;;;;;;;22.93;11.60;;;;;;;13.29;18.11;102679.00;4927161;28;20233;-68
2022/03/21 09:50:11;;;;;;;27.63;12.37;;;;;;;13.12;18.87;102679.28;4928460;28;20335;-68
2022/03/21 09:52:38;;;;;;;27.97;12.40;;;;;;;13.45;18.52;102676.94;4927562;28;20225;-67
2022/03/21 09:55:07;;;;;;;27.70;13.17;;;;;;;13.60;18.15;102676.81;4928712;28;20329;-66
2022/03/21 09:57:34;;;;;;;24.53;11.30;;;;;;;13.14;18.68;102670.19;4925250;28;20316;-67
2022/03/21 10:00:01;;;;;;;23.80;12.10;;;;;;;12.94;19.17;102660.03;4926276;28;20306;-67
2022/03/21 10:02:27;;;;;;;25.70;11.93;;;;;;;13.02;19.36;102661.22;4927586;28;20237;-67
2022/03/21 10:04:55;;;;;;;32.03;13.30;;;;;;;12.97;19.51;102658.00;4926934;28;20724;-68
2022/03/21 10:07:25;;;;;;;25.60;12.00;;;;;;;13.03;19.87;102654.88;4929143;28;20404;-69
2022/03/21 10:10:18;;;;;;;27.33;12.90;;;;;;;12.79;20.00;102651.25;4928921;28;20230;-67
2022/03/21 10:12:44;;;;;;;37.27;12.93;;;;;;;12.73;19.54;102651.66;4926299;28;21313;-68
2022/03/21 10:15:11;;;;;;;30.80;12.30;;;;;;;12.77;19.79;102651.34;4939959;28;20912;-68
2022/03/21 10:17:38;;;;;;;32.33;12.07;;;;;;;12.70;19.17;102638.53;4926056;28;22415;-68
2022/03/21 10:20:08;;;;;;;31.07;11.40;;;;;;;12.56;19.07;102639.44;4925974;28;20237;-68
2022/03/21 10:22:37;;;;;;;20.40;11.27;;;;;;;12.77;18.93;102639.81;4925214;28;20237;-67
2022/03/21 10:25:06;;;;;;;26.47;11.97;;;;;;;12.59;18.64;102629.41;4925871;28;20233;-68
2022/03/21 10:27:38;;;;;;;23.03;11.77;;;;;;;12.77;19.26;102637.13;4906585;28;21226;-68
2022/03/21 10:30:08;;;;;;;23.87;11.70;;;;;;;13.05;18.62;102633.41;4919754;28;20239;-67
2022/03/21 10:32:42;;;;;;;23.93;11.53;;;;;;;12.92;18.03;102629.88;4909082;28;20260;-68
2022/03/21 10:35:22;;;;;;;27.07;11.57;;;;;;;12.93;18.83;102626.25;4924859;28;21254;-67
2022/03/21 10:37:50;;;;;;;26.07;11.20;;;;;;;12.91;18.65;102634.38;4921137;28;20909;-67
2022/03/21 10:40:19;;;;;;;25.00;11.50;;;;;;;12.54;18.54;102626.19;4924523;28;20225;-67
2022/03/21 10:43:14;;;;;;;29.50;11.70;;;;;;;12.60;17.84;102616.94;4926649;28;20237;-67
2022/03/21 10:45:43;;;;;;;24.43;11.57;;;;;;;12.76;18.23;102614.03;4929364;28;20233;-67
2022/03/21 10:48:21;;;;;;;26.63;11.20;;;;;;;12.73;17.80;102619.59;4927515;28;20225;-67
2022/03/21 10:50:50;;;;;;;22.17;11.30;;;;;;;12.96;19.00;102618.00;4922811;28;20236;-67
2022/03/21 10:53:18;;;;;;;26.47;12.27;;;;;;;13.00;19.15;102606.16;4928070;28;20347;-67
2022/03/21 10:55:47;;;;;;;27.07;11.53;;;;;;;13.15;18.11;102604.22;4926920;28;20260;-68
2022/03/21 10:58:15;;;;;;;21.53;10.50;;;;;;;13.26;17.71;102609.66;4923768;28;20773;-68
2022/03/21 11:00:42;;;;;;;28.10;12.57;;;;;;;13.18;18.15;102601.31;4925686;28;20714;-67
2022/03/21 11:03:16;;;;;;;22.20;11.60;;;;;;;13.02;18.02;102594.41;4922372;28;20725;-67
2022/03/21 11:05:45;;;;;;;27.80;11.43;;;;;;;12.96;18.33;102592.13;4921153;28;21789;-66
2022/03/21 11:08:15;;;;;;;27.07;12.03;;;;;;;13.19;17.76;102590.53;4943616;28;20236;-67
2022/03/21 11:10:42;;;;;;;26.50;12.37;;;;;;;13.09;18.69;102589.47;4924179;28;20275;-67
2022/03/21 11:13:10;;;;;;;25.30;12.40;;;;;;;13.27;18.78;102581.94;4926310;28;20315;-67
2022/03/21 11:15:40;;;;;;;23.17;11.40;;;;;;;13.62;17.54;102586.59;4921372;28;21051;-67
2022/03/21 11:18:07;;;;;;;26.37;11.23;;;;;;;13.76;16.57;102586.44;4925176;28;20237;-68
2022/03/21 11:20:33;;;;;;;30.07;12.30;;;;;;;13.72;17.23;102577.81;4949681;28;20725;-67
2022/03/21 11:23:02;;;;;;;23.73;11.00;;;;;;;13.72;16.98;102572.44;4924543;28;20240;-68
2022/03/21 11:25:35;;;;;;;25.53;10.70;;;;;;;13.93;16.87;102586.06;4924231;28;20756;-67
2022/03/21 11:28:31;;;;;;;28.70;11.90;;;;;;;13.86;17.12;102574.09;4926585;28;20250;-67
2022/03/21 11:31:36;;;;;;;30.47;13.63;;;;;;;13.76;17.02;102572.22;4973926;28;20314;-68
2022/03/21 11:34:36;;;;;;;22.70;11.23;;;;;;;13.99;16.70;102567.84;5025014;28;20337;-68
2022/03/21 11:37:02;;;;;;;27.13;12.27;;;;;;;13.80;17.28;102563.84;5051005;28;20239;-68
2022/03/21 11:39:30;;;;;;;21.57;11.23;;;;;;;14.24;17.09;102573.03;5051253;28;20227;-71
2022/03/21 11:42:11;;;;;;;24.83;11.57;;;;;;;14.42;17.54;102556.53;5041409;28;20221;-66
2022/03/21 11:44:38;;;;;;;21.50;10.47;;;;;;;14.64;17.14;102553.94;5039743;28;20335;-68